sensor_id;sensor_type;location;lat;lon;timestamp;temperature;humidity
3466;DHT22;1747;48.884;9.160;2022-10-16T00:01:38;16.50;99.90
3466;DHT22;1747;48.884;9.160;2022-10-16T00:04:04;16.50;99.90
3466;DHT22;1747;48.884;9.160;2022-10-16T00:06:31;16.60;99.90
3466;DHT22;1747;48.884;9.160;2022-10-16T00:09:00;16.50;99.90
3466;DHT22;1747;48.884;9.160;2022-10-16T00:11:28;16.50;99.90
3466;DHT22;1747;48.884;9.160;2022-10-16T00:13:57;16.40;99.90
3466;DHT22;1747;48.884;9.160;2022-10-16T00:16:24;16.40;99.90
3466;DHT22;1747;48.884;9.160;2022-10-16T00:18:51;16.40;99.90
3466;DHT22;1747;48.884;9.160;2022-10-16T00:21:20;16.40;99.90
3466;DHT22;1747;48.884;9.160;2022-10-16T00:23:49;16.40;99.90
3466;DHT22;1747;48.884;9.160;2022-10-16T00:26:18;16.40;99.90
3466;DHT22;1747;48.884;9.160;2022-10-16T00:28:46;16.40;99.90
3466;DHT22;1747;48.884;9.160;2022-10-16T00:31:14;16.40;99.90
3466;DHT22;1747;48.884;9.160;2022-10-16T00:33:41;16.40;99.90
3466;DHT22;1747;48.884;9.160;2022-10-16T00:36:11;16.40;99.90
3466;DHT22;1747;48.884;9.160;2022-10-16T00:38:38;16.40;99.90
3466;DHT22;1747;48.884;9.160;2022-10-16T00:41:05;16.30;99.90
3466;DHT22;1747;48.884;9.160;2022-10-16T00:43:37;16.30;99.90
3466;DHT22;1747;48.884;9.160;2022-10-16T00:46:09;16.30;99.90
3466;DHT22;1747;48.884;9.160;2022-10-16T00:48:37;16.20;99.90
3466;DHT22;1747;48.884;9.160;2022-10-16T00:51:06;16.20;99.90
3466;DHT22;1747;48.884;9.160;2022-10-16T00:53:34;16.20;99.90
3466;DHT22;1747;48.884;9.160;2022-10-16T00:56:02;16.20;99.90
3466;DHT22;1747;48.884;9.160;2022-10-16T00:58:29;16.20;99.90
3466;DHT22;1747;48.884;9.160;2022-10-16T01:00:57;16.20;99.90
3466;DHT22;1747;48.884;9.160;2022-10-16T01:03:28;16.20;99.90
3466;DHT22;1747;48.884;9.160;2022-10-16T01:06:09;16.20;99.90
3466;DHT22;1747;48.884;9.160;2022-10-16T01:08:51;16.20;99.90
3466;DHT22;1747;48.884;9.160;2022-10-16T01:11:24;16.20;99.90
3466;DHT22;1747;48.884;9.160;2022-10-16T01:13:55;16.20;99.90
3466;DHT22;1747;48.884;9.160;2022-10-16T01:16:30;16.20;99.90
3466;DHT22;1747;48.884;9.160;2022-10-16T01:19:02;16.20;99.90
3466;DHT22;1747;48.884;9.160;2022-10-16T01:21:35;16.20;99.90
3466;DHT22;1747;48.884;9.160;2022-10-16T01:24:08;16.20;99.90
3466;DHT22;1747;48.884;9.160;2022-10-16T01:26:47;16.20;99.90
3466;DHT22;1747;48.884;9.160;2022-10-16T01:29:21;16.30;99.90
3466;DHT22;1747;48.884;9.160;2022-10-16T01:31:53;16.30;99.90
3466;DHT22;1747;48.884;9.160;2022-10-16T01:34:25;16.30;99.90
3466;DHT22;1747;48.884;9.160;2022-10-16T01:36:57;16.30;99.90
3466;DHT22;1747;48.884;9.160;2022-10-16T01:39:28;16.30;99.90
3466;DHT22;1747;48.884;9.160;2022-10-16T01:42:01;16.20;99.90
3466;DHT22;1747;48.884;9.160;2022-10-16T01:44:32;16.20;99.90
3466;DHT22;1747;48.884;9.160;2022-10-16T01:47:02;16.30;99.90
3466;DHT22;1747;48.884;9.160;2022-10-16T01:49:32;16.30;99.90
3466;DHT22;1747;48.884;9.160;2022-10-16T01:52:04;16.30;99.90
3466;DHT22;1747;48.884;9.160;2022-10-16T01:54:33;16.30;99.90
3466;DHT22;1747;48.884;9.160;2022-10-16T01:57:02;16.30;99.90
3466;DHT22;1747;48.884;9.160;2022-10-16T01:59:36;16.30;99.90
3466;DHT22;1747;48.884;9.160;2022-10-16T02:02:08;16.30;99.90
3466;DHT22;1747;48.884;9.160;2022-10-16T02:04:38;16.30;99.90
3466;DHT22;1747;48.884;9.160;2022-10-16T02:07:07;16.30;99.90
3466;DHT22;1747;48.884;9.160;2022-10-16T02:09:34;16.30;99.90
3466;DHT22;1747;48.884;9.160;2022-10-16T02:12:08;16.30;99.90
3466;DHT22;1747;48.884;9.160;2022-10-16T02:14:39;16.20;99.90
3466;DHT22;1747;48.884;9.160;2022-10-16T02:17:11;16.20;99.90
3466;DHT22;1747;48.884;9.160;2022-10-16T02:19:37;16.20;99.90
3466;DHT22;1747;48.884;9.160;2022-10-16T02:22:08;16.20;99.90
3466;DHT22;1747;48.884;9.160;2022-10-16T02:24:39;16.30;99.90
3466;DHT22;1747;48.884;9.160;2022-10-16T02:27:13;16.30;99.90
3466;DHT22;1747;48.884;9.160;2022-10-16T02:29:45;16.30;99.90
3466;DHT22;1747;48.884;9.160;2022-10-16T02:32:17;16.30;99.90
3466;DHT22;1747;48.884;9.160;2022-10-16T02:34:47;16.30;99.90
3466;DHT22;1747;48.884;9.160;2022-10-16T02:37:15;16.30;99.90
3466;DHT22;1747;48.884;9.160;2022-10-16T02:39:43;16.30;99.90
3466;DHT22;1747;48.884;9.160;2022-10-16T02:42:10;16.30;99.90
3466;DHT22;1747;48.884;9.160;2022-10-16T02:44:37;16.30;99.90
3466;DHT22;1747;48.884;9.160;2022-10-16T02:47:06;16.40;99.90
3466;DHT22;1747;48.884;9.160;2022-10-16T02:49:32;16.30;99.90
3466;DHT22;1747;48.884;9.160;2022-10-16T02:51:59;16.30;99.90
3466;DHT22;1747;48.884;9.160;2022-10-16T02:54:26;16.30;99.90
3466;DHT22;1747;48.884;9.160;2022-10-16T02:56:53;16.30;99.90
3466;DHT22;1747;48.884;9.160;2022-10-16T02:59:20;16.30;99.90
3466;DHT22;1747;48.884;9.160;2022-10-16T03:01:46;16.20;99.90
3466;DHT22;1747;48.884;9.160;2022-10-16T03:04:14;16.20;99.90
3466;DHT22;1747;48.884;9.160;2022-10-16T03:06:41;16.20;99.90
3466;DHT22;1747;48.884;9.160;2022-10-16T03:09:08;16.20;99.90
3466;DHT22;1747;48.884;9.160;2022-10-16T03:11:35;16.20;99.90
3466;DHT22;1747;48.884;9.160;2022-10-16T03:14:01;16.20;99.90
3466;DHT22;1747;48.884;9.160;2022-10-16T03:16:28;16.20;99.90
3466;DHT22;1747;48.884;9.160;2022-10-16T03:18:55;16.20;99.90
3466;DHT22;1747;48.884;9.160;2022-10-16T03:21:23;16.20;99.90
3466;DHT22;1747;48.884;9.160;2022-10-16T03:23:50;16.20;99.90
3466;DHT22;1747;48.884;9.160;2022-10-16T03:26:17;16.20;99.90
3466;DHT22;1747;48.884;9.160;2022-10-16T03:28:43;16.10;99.90
3466;DHT22;1747;48.884;9.160;2022-10-16T03:31:10;16.10;99.90
3466;DHT22;1747;48.884;9.160;2022-10-16T03:33:37;16.10;99.90
3466;DHT22;1747;48.884;9.160;2022-10-16T03:36:04;16.10;99.90
3466;DHT22;1747;48.884;9.160;2022-10-16T03:38:32;16.10;99.90
3466;DHT22;1747;48.884;9.160;2022-10-16T03:40:59;16.10;99.90
3466;DHT22;1747;48.884;9.160;2022-10-16T03:43:26;16.10;99.90
3466;DHT22;1747;48.884;9.160;2022-10-16T03:45:52;16.10;99.90
3466;DHT22;1747;48.884;9.160;2022-10-16T03:48:19;16.10;99.90
3466;DHT22;1747;48.884;9.160;2022-10-16T03:50:46;16.10;99.90
3466;DHT22;1747;48.884;9.160;2022-10-16T03:53:13;16.10;99.90
3466;DHT22;1747;48.884;9.160;2022-10-16T03:55:43;16.10;99.90
3466;DHT22;1747;48.884;9.160;2022-10-16T03:58:10;16.10;99.90
3466;DHT22;1747;48.884;9.160;2022-10-16T04:00:40;16.00;99.90
3466;DHT22;1747;48.884;9.160;2022-10-16T04:03:07;16.10;99.90
3466;DHT22;1747;48.884;9.160;2022-10-16T04:05:34;16.10;99.90
3466;DHT22;1747;48.884;9.160;2022-10-16T04:08:00;16.10;99.90
3466;DHT22;1747;48.884;9.160;2022-10-16T04:10:27;16.10;99.90
3466;DHT22;1747;48.884;9.160;2022-10-16T04:12:55;16.00;99.90
3466;DHT22;1747;48.884;9.160;2022-10-16T04:15:23;16.00;99.90
3466;DHT22;1747;48.884;9.160;2022-10-16T04:17:50;16.00;99.90
3466;DHT22;1747;48.884;9.160;2022-10-16T04:20:17;16.00;99.90
3466;DHT22;1747;48.884;9.160;2022-10-16T04:22:44;16.00;99.90
3466;DHT22;1747;48.884;9.160;2022-10-16T04:25:11;16.00;99.90
3466;DHT22;1747;48.884;9.160;2022-10-16T04:27:38;16.00;99.90
3466;DHT22;1747;48.884;9.160;2022-10-16T04:30:07;16.00;99.90
3466;DHT22;1747;48.884;9.160;2022-10-16T04:32:34;16.00;99.90
3466;DHT22;1747;48.884;9.160;2022-10-16T04:35:01;16.00;99.90
3466;DHT22;1747;48.884;9.160;2022-10-16T04:37:28;16.00;99.90
3466;DHT22;1747;48.884;9.160;2022-10-16T04:39:55;16.00;99.90
3466;DHT22;1747;48.884;9.160;2022-10-16T04:42:22;16.00;99.90
3466;DHT22;1747;48.884;9.160;2022-10-16T04:44:48;16.00;99.90
3466;DHT22;1747;48.884;9.160;2022-10-16T04:47:16;16.00;99.90
3466;DHT22;1747;48.884;9.160;2022-10-16T04:49:43;16.00;99.90
3466;DHT22;1747;48.884;9.160;2022-10-16T04:52:10;16.00;99.90
3466;DHT22;1747;48.884;9.160;2022-10-16T04:54:37;16.00;99.90
3466;DHT22;1747;48.884;9.160;2022-10-16T04:57:04;16.00;99.90
3466;DHT22;1747;48.884;9.160;2022-10-16T04:59:31;16.00;99.90
3466;DHT22;1747;48.884;9.160;2022-10-16T05:01:58;16.00;99.90
3466;DHT22;1747;48.884;9.160;2022-10-16T05:04:26;16.00;99.90
3466;DHT22;1747;48.884;9.160;2022-10-16T05:06:52;16.00;99.90
3466;DHT22;1747;48.884;9.160;2022-10-16T05:09:19;16.00;99.90
3466;DHT22;1747;48.884;9.160;2022-10-16T05:11:46;16.10;99.90
3466;DHT22;1747;48.884;9.160;2022-10-16T05:14:13;16.10;99.90
3466;DHT22;1747;48.884;9.160;2022-10-16T05:16:40;16.10;99.90
3466;DHT22;1747;48.884;9.160;2022-10-16T05:19:06;16.10;99.90
3466;DHT22;1747;48.884;9.160;2022-10-16T05:21:35;16.10;99.90
3466;DHT22;1747;48.884;9.160;2022-10-16T05:24:01;16.10;99.90
3466;DHT22;1747;48.884;9.160;2022-10-16T05:26:28;16.10;99.90
3466;DHT22;1747;48.884;9.160;2022-10-16T05:28:55;16.10;99.90
3466;DHT22;1747;48.884;9.160;2022-10-16T05:31:22;16.10;99.90
3466;DHT22;1747;48.884;9.160;2022-10-16T05:33:48;16.10;99.90
3466;DHT22;1747;48.884;9.160;2022-10-16T05:36:15;16.10;99.90
3466;DHT22;1747;48.884;9.160;2022-10-16T05:38:45;16.10;99.90
3466;DHT22;1747;48.884;9.160;2022-10-16T05:41:11;16.00;99.90
3466;DHT22;1747;48.884;9.160;2022-10-16T05:43:38;15.90;99.90
3466;DHT22;1747;48.884;9.160;2022-10-16T05:46:06;15.90;99.90
3466;DHT22;1747;48.884;9.160;2022-10-16T05:48:33;15.90;99.90
3466;DHT22;1747;48.884;9.160;2022-10-16T05:51:01;15.90;99.90
3466;DHT22;1747;48.884;9.160;2022-10-16T05:53:30;15.80;99.90
3466;DHT22;1747;48.884;9.160;2022-10-16T05:55:58;15.80;99.90
3466;DHT22;1747;48.884;9.160;2022-10-16T05:58:29;15.80;99.90
3466;DHT22;1747;48.884;9.160;2022-10-16T06:00:58;15.80;99.90
3466;DHT22;1747;48.884;9.160;2022-10-16T06:03:25;15.80;99.90
3466;DHT22;1747;48.884;9.160;2022-10-16T06:05:52;15.80;99.90
3466;DHT22;1747;48.884;9.160;2022-10-16T06:08:21;15.80;99.90
3466;DHT22;1747;48.884;9.160;2022-10-16T06:10:49;15.80;99.90
3466;DHT22;1747;48.884;9.160;2022-10-16T06:13:17;15.80;99.90
3466;DHT22;1747;48.884;9.160;2022-10-16T06:15:44;15.80;99.90
3466;DHT22;1747;48.884;9.160;2022-10-16T06:18:10;15.80;99.90
3466;DHT22;1747;48.884;9.160;2022-10-16T06:20:37;15.80;99.90
3466;DHT22;1747;48.884;9.160;2022-10-16T06:23:04;15.70;99.90
3466;DHT22;1747;48.884;9.160;2022-10-16T06:25:31;15.70;99.90
3466;DHT22;1747;48.884;9.160;2022-10-16T06:27:58;15.60;99.90
3466;DHT22;1747;48.884;9.160;2022-10-16T06:30:26;15.60;99.90
3466;DHT22;1747;48.884;9.160;2022-10-16T06:32:53;15.70;99.90
3466;DHT22;1747;48.884;9.160;2022-10-16T06:35:19;15.70;99.90
3466;DHT22;1747;48.884;9.160;2022-10-16T06:37:46;15.70;99.90
3466;DHT22;1747;48.884;9.160;2022-10-16T06:40:13;15.80;99.90
3466;DHT22;1747;48.884;9.160;2022-10-16T06:42:40;15.80;99.90
3466;DHT22;1747;48.884;9.160;2022-10-16T06:45:08;15.90;99.90
3466;DHT22;1747;48.884;9.160;2022-10-16T06:47:36;15.90;99.90
3466;DHT22;1747;48.884;9.160;2022-10-16T06:50:04;15.90;99.90
3466;DHT22;1747;48.884;9.160;2022-10-16T06:52:32;16.00;99.90
3466;DHT22;1747;48.884;9.160;2022-10-16T06:54:59;16.00;99.90
3466;DHT22;1747;48.884;9.160;2022-10-16T06:57:26;16.10;99.90
3466;DHT22;1747;48.884;9.160;2022-10-16T06:59:53;16.10;99.90
3466;DHT22;1747;48.884;9.160;2022-10-16T07:02:20;16.10;99.90
3466;DHT22;1747;48.884;9.160;2022-10-16T07:04:48;16.20;99.90
3466;DHT22;1747;48.884;9.160;2022-10-16T07:07:15;16.30;99.90
3466;DHT22;1747;48.884;9.160;2022-10-16T07:09:42;16.30;99.90
3466;DHT22;1747;48.884;9.160;2022-10-16T07:12:08;16.40;99.90
3466;DHT22;1747;48.884;9.160;2022-10-16T07:14:35;16.50;99.90
3466;DHT22;1747;48.884;9.160;2022-10-16T07:17:02;16.50;99.90
3466;DHT22;1747;48.884;9.160;2022-10-16T07:19:29;16.50;99.90
3466;DHT22;1747;48.884;9.160;2022-10-16T07:21:57;16.50;99.90
3466;DHT22;1747;48.884;9.160;2022-10-16T07:24:24;16.50;99.90
3466;DHT22;1747;48.884;9.160;2022-10-16T07:26:51;16.50;99.90
3466;DHT22;1747;48.884;9.160;2022-10-16T07:29:19;16.50;99.90
3466;DHT22;1747;48.884;9.160;2022-10-16T07:31:47;16.60;99.90
3466;DHT22;1747;48.884;9.160;2022-10-16T07:34:16;16.60;99.90
3466;DHT22;1747;48.884;9.160;2022-10-16T07:36:43;16.60;99.90
3466;DHT22;1747;48.884;9.160;2022-10-16T07:39:11;16.60;99.90
3466;DHT22;1747;48.884;9.160;2022-10-16T07:41:38;16.60;99.90
3466;DHT22;1747;48.884;9.160;2022-10-16T07:44:04;16.70;99.90
3466;DHT22;1747;48.884;9.160;2022-10-16T07:46:32;16.60;99.90
3466;DHT22;1747;48.884;9.160;2022-10-16T07:49:01;16.70;99.90
3466;DHT22;1747;48.884;9.160;2022-10-16T07:51:28;16.70;99.90
3466;DHT22;1747;48.884;9.160;2022-10-16T07:53:55;16.80;99.90
3466;DHT22;1747;48.884;9.160;2022-10-16T07:56:30;16.80;99.90
3466;DHT22;1747;48.884;9.160;2022-10-16T07:58:57;16.80;99.90
3466;DHT22;1747;48.884;9.160;2022-10-16T08:01:24;16.90;99.90
3466;DHT22;1747;48.884;9.160;2022-10-16T08:03:52;16.90;99.90
3466;DHT22;1747;48.884;9.160;2022-10-16T08:06:20;16.90;99.90
3466;DHT22;1747;48.884;9.160;2022-10-16T08:08:48;17.00;99.90
3466;DHT22;1747;48.884;9.160;2022-10-16T08:11:15;17.10;99.90
3466;DHT22;1747;48.884;9.160;2022-10-16T08:13:43;17.10;99.90
3466;DHT22;1747;48.884;9.160;2022-10-16T08:16:11;17.20;99.90
3466;DHT22;1747;48.884;9.160;2022-10-16T08:18:39;17.40;99.90
3466;DHT22;1747;48.884;9.160;2022-10-16T08:21:07;17.50;99.90
3466;DHT22;1747;48.884;9.160;2022-10-16T08:23:34;17.70;99.90
3466;DHT22;1747;48.884;9.160;2022-10-16T08:26:05;17.90;99.90
3466;DHT22;1747;48.884;9.160;2022-10-16T08:28:33;18.00;99.90
3466;DHT22;1747;48.884;9.160;2022-10-16T08:31:09;18.30;99.90
3466;DHT22;1747;48.884;9.160;2022-10-16T08:33:36;18.50;99.90
3466;DHT22;1747;48.884;9.160;2022-10-16T08:36:04;18.50;99.90
3466;DHT22;1747;48.884;9.160;2022-10-16T08:38:31;18.50;99.90
3466;DHT22;1747;48.884;9.160;2022-10-16T08:41:14;18.60;99.90
3466;DHT22;1747;48.884;9.160;2022-10-16T08:44:01;18.70;99.90
3466;DHT22;1747;48.884;9.160;2022-10-16T08:46:40;18.80;99.90
3466;DHT22;1747;48.884;9.160;2022-10-16T08:49:12;18.90;99.90
3466;DHT22;1747;48.884;9.160;2022-10-16T08:51:40;19.10;99.90
3466;DHT22;1747;48.884;9.160;2022-10-16T08:54:20;19.10;99.90
3466;DHT22;1747;48.884;9.160;2022-10-16T08:56:48;19.20;99.90
3466;DHT22;1747;48.884;9.160;2022-10-16T08:59:16;19.30;99.90
3466;DHT22;1747;48.884;9.160;2022-10-16T09:01:46;19.30;99.90
3466;DHT22;1747;48.884;9.160;2022-10-16T09:04:42;19.20;99.90
3466;DHT22;1747;48.884;9.160;2022-10-16T09:07:14;19.30;99.90
3466;DHT22;1747;48.884;9.160;2022-10-16T09:09:57;19.30;99.90
3466;DHT22;1747;48.884;9.160;2022-10-16T09:12:28;19.30;99.90
3466;DHT22;1747;48.884;9.160;2022-10-16T09:15:12;19.20;99.90
3466;DHT22;1747;48.884;9.160;2022-10-16T09:17:52;19.20;99.90
3466;DHT22;1747;48.884;9.160;2022-10-16T09:20:31;19.30;99.90
3466;DHT22;1747;48.884;9.160;2022-10-16T09:23:10;19.40;99.90
3466;DHT22;1747;48.884;9.160;2022-10-16T09:25:39;19.50;99.90
3466;DHT22;1747;48.884;9.160;2022-10-16T09:28:08;19.50;99.90
3466;DHT22;1747;48.884;9.160;2022-10-16T09:30:34;19.60;99.90
3466;DHT22;1747;48.884;9.160;2022-10-16T09:33:03;19.70;99.90
3466;DHT22;1747;48.884;9.160;2022-10-16T09:35:35;19.80;99.90
3466;DHT22;1747;48.884;9.160;2022-10-16T09:38:03;19.90;99.90
3466;DHT22;1747;48.884;9.160;2022-10-16T09:40:31;20.00;99.90
3466;DHT22;1747;48.884;9.160;2022-10-16T09:43:03;20.10;99.90
3466;DHT22;1747;48.884;9.160;2022-10-16T09:45:32;20.30;99.90
3466;DHT22;1747;48.884;9.160;2022-10-16T09:48:02;20.40;99.90
3466;DHT22;1747;48.884;9.160;2022-10-16T09:50:36;20.50;99.90
3466;DHT22;1747;48.884;9.160;2022-10-16T09:53:06;20.60;99.90
3466;DHT22;1747;48.884;9.160;2022-10-16T09:55:35;20.70;99.90
3466;DHT22;1747;48.884;9.160;2022-10-16T09:58:01;20.70;99.90
3466;DHT22;1747;48.884;9.160;2022-10-16T10:00:28;20.80;99.90
3466;DHT22;1747;48.884;9.160;2022-10-16T10:02:55;20.90;99.90
3466;DHT22;1747;48.884;9.160;2022-10-16T10:05:25;21.10;99.90
3466;DHT22;1747;48.884;9.160;2022-10-16T10:07:55;21.30;99.90
3466;DHT22;1747;48.884;9.160;2022-10-16T10:10:24;21.40;99.90
3466;DHT22;1747;48.884;9.160;2022-10-16T10:12:52;21.40;99.90
3466;DHT22;1747;48.884;9.160;2022-10-16T10:15:19;21.40;99.90
3466;DHT22;1747;48.884;9.160;2022-10-16T10:17:49;21.40;99.90
3466;DHT22;1747;48.884;9.160;2022-10-16T10:20:25;21.40;99.90
3466;DHT22;1747;48.884;9.160;2022-10-16T10:22:53;21.60;99.90
3466;DHT22;1747;48.884;9.160;2022-10-16T10:25:37;21.90;99.90
3466;DHT22;1747;48.884;9.160;2022-10-16T10:28:25;22.20;99.90
3466;DHT22;1747;48.884;9.160;2022-10-16T10:31:00;22.40;99.90
3466;DHT22;1747;48.884;9.160;2022-10-16T10:33:37;22.70;99.90
3466;DHT22;1747;48.884;9.160;2022-10-16T10:36:15;22.90;99.90
3466;DHT22;1747;48.884;9.160;2022-10-16T10:38:49;23.00;99.90
3466;DHT22;1747;48.884;9.160;2022-10-16T10:41:35;23.10;99.90
3466;DHT22;1747;48.884;9.160;2022-10-16T10:44:13;23.20;99.90
3466;DHT22;1747;48.884;9.160;2022-10-16T10:46:47;23.30;99.90
3466;DHT22;1747;48.884;9.160;2022-10-16T10:49:34;23.40;99.90
3466;DHT22;1747;48.884;9.160;2022-10-16T10:52:19;23.60;99.90
3466;DHT22;1747;48.884;9.160;2022-10-16T10:54:58;23.80;99.90
3466;DHT22;1747;48.884;9.160;2022-10-16T10:57:30;23.90;99.90
3466;DHT22;1747;48.884;9.160;2022-10-16T11:00:10;24.00;99.90
3466;DHT22;1747;48.884;9.160;2022-10-16T11:02:48;24.20;99.90
3466;DHT22;1747;48.884;9.160;2022-10-16T11:05:38;24.30;99.90
3466;DHT22;1747;48.884;9.160;2022-10-16T11:08:13;24.50;99.90
3466;DHT22;1747;48.884;9.160;2022-10-16T11:10:47;24.60;99.90
3466;DHT22;1747;48.884;9.160;2022-10-16T11:13:24;24.70;99.90
3466;DHT22;1747;48.884;9.160;2022-10-16T11:15:58;24.70;99.90
3466;DHT22;1747;48.884;9.160;2022-10-16T11:18:32;24.80;99.90
3466;DHT22;1747;48.884;9.160;2022-10-16T11:21:08;24.90;99.90
3466;DHT22;1747;48.884;9.160;2022-10-16T11:23:42;24.90;99.90
3466;DHT22;1747;48.884;9.160;2022-10-16T11:26:14;24.90;99.90
3466;DHT22;1747;48.884;9.160;2022-10-16T11:28:45;25.00;99.90
3466;DHT22;1747;48.884;9.160;2022-10-16T11:31:19;25.10;99.90
3466;DHT22;1747;48.884;9.160;2022-10-16T11:33:52;25.20;99.90
3466;DHT22;1747;48.884;9.160;2022-10-16T11:36:25;25.40;99.90
3466;DHT22;1747;48.884;9.160;2022-10-16T11:39:00;25.30;99.90
3466;DHT22;1747;48.884;9.160;2022-10-16T11:41:34;25.30;99.90
3466;DHT22;1747;48.884;9.160;2022-10-16T11:44:14;25.50;99.90
3466;DHT22;1747;48.884;9.160;2022-10-16T11:46:48;25.40;99.90
3466;DHT22;1747;48.884;9.160;2022-10-16T11:49:19;25.50;99.90
3466;DHT22;1747;48.884;9.160;2022-10-16T11:51:55;25.70;99.90
3466;DHT22;1747;48.884;9.160;2022-10-16T11:54:32;26.00;99.90
3466;DHT22;1747;48.884;9.160;2022-10-16T11:57:09;26.30;99.90
3466;DHT22;1747;48.884;9.160;2022-10-16T11:59:42;26.50;99.90
3466;DHT22;1747;48.884;9.160;2022-10-16T12:05:20;26.70;99.80
3466;DHT22;1747;48.884;9.160;2022-10-16T12:07:54;27.10;99.90
3466;DHT22;1747;48.884;9.160;2022-10-16T12:10:25;27.50;99.50
3466;DHT22;1747;48.884;9.160;2022-10-16T12:12:52;27.80;98.20
3466;DHT22;1747;48.884;9.160;2022-10-16T12:15:23;27.90;98.40
3466;DHT22;1747;48.884;9.160;2022-10-16T12:17:51;27.90;98.60
3466;DHT22;1747;48.884;9.160;2022-10-16T12:20:24;27.70;98.30
3466;DHT22;1747;48.884;9.160;2022-10-16T12:22:54;27.30;97.30
3466;DHT22;1747;48.884;9.160;2022-10-16T12:25:25;27.10;97.70
3466;DHT22;1747;48.884;9.160;2022-10-16T12:27:55;27.00;98.40
3466;DHT22;1747;48.884;9.160;2022-10-16T12:30:25;26.80;97.70
3466;DHT22;1747;48.884;9.160;2022-10-16T12:32:56;26.70;97.90
3466;DHT22;1747;48.884;9.160;2022-10-16T12:35:26;26.60;98.30
3466;DHT22;1747;48.884;9.160;2022-10-16T12:37:54;26.60;98.40
3466;DHT22;1747;48.884;9.160;2022-10-16T12:40:34;26.60;98.80
3466;DHT22;1747;48.884;9.160;2022-10-16T12:43:12;26.50;98.10
3466;DHT22;1747;48.884;9.160;2022-10-16T12:45:39;26.50;98.90
3466;DHT22;1747;48.884;9.160;2022-10-16T12:48:19;26.70;98.00
3466;DHT22;1747;48.884;9.160;2022-10-16T12:50:47;27.10;98.50
3466;DHT22;1747;48.884;9.160;2022-10-16T12:53:21;27.70;98.40
3466;DHT22;1747;48.884;9.160;2022-10-16T12:55:58;28.30;96.90
3466;DHT22;1747;48.884;9.160;2022-10-16T12:58:48;28.50;95.50
3466;DHT22;1747;48.884;9.160;2022-10-16T13:01:28;28.70;95.20
3466;DHT22;1747;48.884;9.160;2022-10-16T13:04:30;28.70;94.60
3466;DHT22;1747;48.884;9.160;2022-10-16T13:07:05;28.80;94.60
3466;DHT22;1747;48.884;9.160;2022-10-16T13:09:49;28.70;93.90
3466;DHT22;1747;48.884;9.160;2022-10-16T13:12:30;28.70;94.20
3466;DHT22;1747;48.884;9.160;2022-10-16T13:15:20;28.60;93.90
3466;DHT22;1747;48.884;9.160;2022-10-16T13:17:55;28.40;94.00
3466;DHT22;1747;48.884;9.160;2022-10-16T13:20:31;28.20;94.70
3466;DHT22;1747;48.884;9.160;2022-10-16T13:23:08;28.10;94.10
3466;DHT22;1747;48.884;9.160;2022-10-16T13:25:48;28.00;94.80
3466;DHT22;1747;48.884;9.160;2022-10-16T13:28:21;27.90;94.40
3466;DHT22;1747;48.884;9.160;2022-10-16T13:30:52;27.80;94.60
3466;DHT22;1747;48.884;9.160;2022-10-16T13:33:23;27.60;95.10
3466;DHT22;1747;48.884;9.160;2022-10-16T13:35:51;27.40;95.50
3466;DHT22;1747;48.884;9.160;2022-10-16T13:38:21;27.20;95.20
3466;DHT22;1747;48.884;9.160;2022-10-16T13:40:53;27.10;95.60
3466;DHT22;1747;48.884;9.160;2022-10-16T13:43:27;26.90;96.10
3466;DHT22;1747;48.884;9.160;2022-10-16T13:45:56;26.70;96.60
3466;DHT22;1747;48.884;9.160;2022-10-16T13:48:23;26.40;96.80
3466;DHT22;1747;48.884;9.160;2022-10-16T13:51:01;26.30;97.90
3466;DHT22;1747;48.884;9.160;2022-10-16T13:53:30;26.20;97.70
3466;DHT22;1747;48.884;9.160;2022-10-16T13:55:57;26.60;97.00
3466;DHT22;1747;48.884;9.160;2022-10-16T13:58:27;27.10;96.80
3466;DHT22;1747;48.884;9.160;2022-10-16T14:00:56;27.60;96.70
3466;DHT22;1747;48.884;9.160;2022-10-16T14:03:24;28.00;95.40
3466;DHT22;1747;48.884;9.160;2022-10-16T14:05:53;28.00;95.50
3466;DHT22;1747;48.884;9.160;2022-10-16T14:08:21;27.70;95.30
3466;DHT22;1747;48.884;9.160;2022-10-16T14:10:50;27.50;95.90
3466;DHT22;1747;48.884;9.160;2022-10-16T14:13:24;27.20;95.90
3466;DHT22;1747;48.884;9.160;2022-10-16T14:15:54;27.00;96.10
3466;DHT22;1747;48.884;9.160;2022-10-16T14:18:25;26.70;96.80
3466;DHT22;1747;48.884;9.160;2022-10-16T14:20:54;26.40;97.20
3466;DHT22;1747;48.884;9.160;2022-10-16T14:23:22;26.30;97.10
3466;DHT22;1747;48.884;9.160;2022-10-16T14:25:51;26.20;97.60
3466;DHT22;1747;48.884;9.160;2022-10-16T14:28:20;26.00;98.00
3466;DHT22;1747;48.884;9.160;2022-10-16T14:30:52;25.90;98.00
3466;DHT22;1747;48.884;9.160;2022-10-16T14:33:23;25.80;98.50
3466;DHT22;1747;48.884;9.160;2022-10-16T14:36:02;25.70;99.20
3466;DHT22;1747;48.884;9.160;2022-10-16T14:38:30;25.80;99.20
3466;DHT22;1747;48.884;9.160;2022-10-16T14:40:58;25.70;99.00
3466;DHT22;1747;48.884;9.160;2022-10-16T14:43:31;25.70;99.80
3466;DHT22;1747;48.884;9.160;2022-10-16T14:45:59;25.70;99.90
3466;DHT22;1747;48.884;9.160;2022-10-16T14:48:29;25.60;99.90
3466;DHT22;1747;48.884;9.160;2022-10-16T14:50:56;25.60;99.50
3466;DHT22;1747;48.884;9.160;2022-10-16T14:53:23;25.60;99.60
3466;DHT22;1747;48.884;9.160;2022-10-16T14:55:50;25.60;99.40
3466;DHT22;1747;48.884;9.160;2022-10-16T14:58:19;25.60;99.70
3466;DHT22;1747;48.884;9.160;2022-10-16T15:00:46;25.60;99.70
3466;DHT22;1747;48.884;9.160;2022-10-16T15:03:14;25.70;99.80
3466;DHT22;1747;48.884;9.160;2022-10-16T15:05:42;25.90;99.90
3466;DHT22;1747;48.884;9.160;2022-10-16T15:08:09;26.20;99.90
3466;DHT22;1747;48.884;9.160;2022-10-16T15:10:38;26.40;99.40
3466;DHT22;1747;48.884;9.160;2022-10-16T15:13:06;26.60;99.20
3466;DHT22;1747;48.884;9.160;2022-10-16T15:15:35;26.80;99.00
3466;DHT22;1747;48.884;9.160;2022-10-16T15:18:03;26.80;98.80
3466;DHT22;1747;48.884;9.160;2022-10-16T15:20:31;26.60;98.50
3466;DHT22;1747;48.884;9.160;2022-10-16T15:23:01;26.60;98.50
3466;DHT22;1747;48.884;9.160;2022-10-16T15:25:36;26.30;99.00
3466;DHT22;1747;48.884;9.160;2022-10-16T15:28:05;26.20;99.10
3466;DHT22;1747;48.884;9.160;2022-10-16T15:30:33;26.00;99.30
3466;DHT22;1747;48.884;9.160;2022-10-16T15:33:00;25.90;99.50
3466;DHT22;1747;48.884;9.160;2022-10-16T15:35:28;25.70;99.90
3466;DHT22;1747;48.884;9.160;2022-10-16T15:37:56;25.60;99.90
3466;DHT22;1747;48.884;9.160;2022-10-16T15:40:24;25.50;99.90
3466;DHT22;1747;48.884;9.160;2022-10-16T15:42:51;25.50;99.90
3466;DHT22;1747;48.884;9.160;2022-10-16T15:45:18;25.60;99.90
3466;DHT22;1747;48.884;9.160;2022-10-16T15:47:46;25.70;99.90
3466;DHT22;1747;48.884;9.160;2022-10-16T15:50:13;25.70;99.90
3466;DHT22;1747;48.884;9.160;2022-10-16T15:52:41;25.70;99.90
3466;DHT22;1747;48.884;9.160;2022-10-16T15:55:12;25.70;99.90
3466;DHT22;1747;48.884;9.160;2022-10-16T15:57:41;25.70;99.90
3466;DHT22;1747;48.884;9.160;2022-10-16T16:00:10;25.60;99.90
3466;DHT22;1747;48.884;9.160;2022-10-16T16:02:37;25.50;99.90
3466;DHT22;1747;48.884;9.160;2022-10-16T16:05:05;25.30;99.90
3466;DHT22;1747;48.884;9.160;2022-10-16T16:07:33;25.20;99.90
3466;DHT22;1747;48.884;9.160;2022-10-16T16:10:01;25.10;99.90
3466;DHT22;1747;48.884;9.160;2022-10-16T16:12:28;25.00;99.90
3466;DHT22;1747;48.884;9.160;2022-10-16T16:14:56;24.80;99.90
3466;DHT22;1747;48.884;9.160;2022-10-16T16:17:23;24.70;99.90
3466;DHT22;1747;48.884;9.160;2022-10-16T16:19:50;24.50;99.90
3466;DHT22;1747;48.884;9.160;2022-10-16T16:22:17;24.30;99.90
3466;DHT22;1747;48.884;9.160;2022-10-16T16:24:44;24.20;99.90